sensor_id;sensor_type;location;lat;lon;timestamp;P1;durP1;ratioP1;P2;durP2;ratioP2
22648;SDS011;11491;41.942;24.220;2023-04-25T00:01:37;1.92;;;1.40;;
22648;SDS011;11491;41.942;24.220;2023-04-25T00:04:05;2.80;;;1.50;;
22648;SDS011;11491;41.942;24.220;2023-04-25T00:06:34;1.60;;;1.20;;
22648;SDS011;11491;41.942;24.220;2023-04-25T00:09:01;3.33;;;1.00;;
22648;SDS011;11491;41.942;24.220;2023-04-25T00:11:28;3.28;;;1.35;;
22648;SDS011;11491;41.942;24.220;2023-04-25T00:13:56;2.00;;;1.33;;
22648;SDS011;11491;41.942;24.220;2023-04-25T00:16:24;3.58;;;1.55;;
22648;SDS011;11491;41.942;24.220;2023-04-25T00:18:51;2.75;;;1.38;;
22648;SDS011;11491;41.942;24.220;2023-04-25T00:21:20;2.53;;;1.48;;
22648;SDS011;11491;41.942;24.220;2023-04-25T00:23:49;1.65;;;1.10;;
22648;SDS011;11491;41.942;24.220;2023-04-25T00:26:16;1.88;;;1.20;;
22648;SDS011;11491;41.942;24.220;2023-04-25T00:28:42;1.80;;;1.45;;
22648;SDS011;11491;41.942;24.220;2023-04-25T00:31:10;1.58;;;1.08;;
22648;SDS011;11491;41.942;24.220;2023-04-25T00:33:37;4.30;;;1.80;;
22648;SDS011;11491;41.942;24.220;2023-04-25T00:36:04;3.10;;;1.60;;
22648;SDS011;11491;41.942;24.220;2023-04-25T00:38:32;2.28;;;1.23;;
22648;SDS011;11491;41.942;24.220;2023-04-25T00:40:59;2.00;;;1.20;;
22648;SDS011;11491;41.942;24.220;2023-04-25T00:43:26;1.40;;;1.17;;
22648;SDS011;11491;41.942;24.220;2023-04-25T00:45:53;1.73;;;1.13;;
22648;SDS011;11491;41.942;24.220;2023-04-25T00:48:22;6.78;;;3.83;;
22648;SDS011;11491;41.942;24.220;2023-04-25T00:50:51;4.05;;;2.00;;
22648;SDS011;11491;41.942;24.220;2023-04-25T00:53:19;5.72;;;1.75;;
22648;SDS011;11491;41.942;24.220;2023-04-25T00:55:47;4.18;;;1.70;;
22648;SDS011;11491;41.942;24.220;2023-04-25T00:58:16;3.08;;;1.67;;
22648;SDS011;11491;41.942;24.220;2023-04-25T01:00:43;2.85;;;1.90;;
22648;SDS011;11491;41.942;24.220;2023-04-25T01:03:10;3.67;;;1.95;;
22648;SDS011;11491;41.942;24.220;2023-04-25T01:05:37;4.13;;;2.47;;
22648;SDS011;11491;41.942;24.220;2023-04-25T01:08:05;3.22;;;2.25;;
22648;SDS011;11491;41.942;24.220;2023-04-25T01:10:32;3.60;;;2.20;;
22648;SDS011;11491;41.942;24.220;2023-04-25T01:13:00;3.03;;;1.90;;
22648;SDS011;11491;41.942;24.220;2023-04-25T01:15:26;3.47;;;2.20;;
22648;SDS011;11491;41.942;24.220;2023-04-25T01:17:53;6.68;;;3.78;;
22648;SDS011;11491;41.942;24.220;2023-04-25T01:20:21;4.05;;;2.60;;
22648;SDS011;11491;41.942;24.220;2023-04-25T01:22:50;5.95;;;4.57;;
22648;SDS011;11491;41.942;24.220;2023-04-25T01:25:17;6.70;;;3.97;;
22648;SDS011;11491;41.942;24.220;2023-04-25T01:27:45;5.43;;;3.75;;
22648;SDS011;11491;41.942;24.220;2023-04-25T01:30:12;7.68;;;3.20;;
22648;SDS011;11491;41.942;24.220;2023-04-25T01:32:40;4.28;;;3.50;;
22648;SDS011;11491;41.942;24.220;2023-04-25T01:35:09;5.20;;;3.67;;
22648;SDS011;11491;41.942;24.220;2023-04-25T01:37:38;6.40;;;4.63;;
22648;SDS011;11491;41.942;24.220;2023-04-25T01:40:07;7.43;;;5.07;;
22648;SDS011;11491;41.942;24.220;2023-04-25T01:42:37;8.23;;;5.60;;
22648;SDS011;11491;41.942;24.220;2023-04-25T01:45:07;8.68;;;4.50;;
22648;SDS011;11491;41.942;24.220;2023-04-25T01:47:35;7.30;;;3.58;;
22648;SDS011;11491;41.942;24.220;2023-04-25T01:50:03;5.13;;;3.42;;
22648;SDS011;11491;41.942;24.220;2023-04-25T01:52:30;6.82;;;4.13;;
22648;SDS011;11491;41.942;24.220;2023-04-25T01:54:57;6.00;;;4.43;;
22648;SDS011;11491;41.942;24.220;2023-04-25T01:57:27;8.23;;;3.28;;
22648;SDS011;11491;41.942;24.220;2023-04-25T01:59:54;6.40;;;2.85;;
22648;SDS011;11491;41.942;24.220;2023-04-25T02:02:24;4.38;;;3.10;;
22648;SDS011;11491;41.942;24.220;2023-04-25T02:04:51;5.75;;;3.17;;
22648;SDS011;11491;41.942;24.220;2023-04-25T02:07:19;4.20;;;2.85;;
22648;SDS011;11491;41.942;24.220;2023-04-25T02:09:46;4.32;;;2.97;;
22648;SDS011;11491;41.942;24.220;2023-04-25T02:12:12;7.15;;;2.60;;
22648;SDS011;11491;41.942;24.220;2023-04-25T02:14:41;5.18;;;2.50;;
22648;SDS011;11491;41.942;24.220;2023-04-25T02:17:07;5.20;;;3.80;;
22648;SDS011;11491;41.942;24.220;2023-04-25T02:19:34;5.97;;;3.50;;
22648;SDS011;11491;41.942;24.220;2023-04-25T02:22:01;4.00;;;3.25;;
22648;SDS011;11491;41.942;24.220;2023-04-25T02:24:28;5.35;;;3.33;;
22648;SDS011;11491;41.942;24.220;2023-04-25T02:26:55;4.78;;;3.10;;
22648;SDS011;11491;41.942;24.220;2023-04-25T02:29:21;7.75;;;3.67;;
22648;SDS011;11491;41.942;24.220;2023-04-25T02:31:49;8.73;;;5.13;;
22648;SDS011;11491;41.942;24.220;2023-04-25T02:34:16;6.00;;;4.28;;
22648;SDS011;11491;41.942;24.220;2023-04-25T02:36:43;5.55;;;3.33;;
22648;SDS011;11491;41.942;24.220;2023-04-25T02:39:10;5.57;;;3.08;;
22648;SDS011;11491;41.942;24.220;2023-04-25T02:41:36;4.45;;;2.90;;
22648;SDS011;11491;41.942;24.220;2023-04-25T02:44:03;6.32;;;4.47;;
22648;SDS011;11491;41.942;24.220;2023-04-25T02:46:30;13.77;;;10.27;;
22648;SDS011;11491;41.942;24.220;2023-04-25T02:48:58;17.60;;;12.38;;
22648;SDS011;11491;41.942;24.220;2023-04-25T02:51:25;21.55;;;12.93;;
22648;SDS011;11491;41.942;24.220;2023-04-25T02:53:51;24.17;;;15.98;;
22648;SDS011;11491;41.942;24.220;2023-04-25T02:56:18;26.02;;;17.40;;
22648;SDS011;11491;41.942;24.220;2023-04-25T02:58:45;29.13;;;19.92;;
22648;SDS011;11491;41.942;24.220;2023-04-25T03:01:11;27.83;;;19.30;;
22648;SDS011;11491;41.942;24.220;2023-04-25T03:03:38;28.92;;;19.45;;
22648;SDS011;11491;41.942;24.220;2023-04-25T03:06:06;28.50;;;19.17;;
22648;SDS011;11491;41.942;24.220;2023-04-25T03:08:33;31.17;;;23.08;;
22648;SDS011;11491;41.942;24.220;2023-04-25T03:11:00;39.40;;;27.40;;
22648;SDS011;11491;41.942;24.220;2023-04-25T03:13:26;40.30;;;26.95;;
22648;SDS011;11491;41.942;24.220;2023-04-25T03:15:55;34.53;;;24.33;;
22648;SDS011;11491;41.942;24.220;2023-04-25T03:18:21;25.92;;;18.52;;
22648;SDS011;11491;41.942;24.220;2023-04-25T03:20:48;20.17;;;15.70;;
22648;SDS011;11491;41.942;24.220;2023-04-25T03:23:16;23.23;;;16.15;;
22648;SDS011;11491;41.942;24.220;2023-04-25T03:25:43;25.48;;;19.67;;
22648;SDS011;11491;41.942;24.220;2023-04-25T03:28:10;30.17;;;21.58;;
22648;SDS011;11491;41.942;24.220;2023-04-25T03:30:36;31.02;;;22.85;;
22648;SDS011;11491;41.942;24.220;2023-04-25T03:33:03;30.33;;;21.20;;
22648;SDS011;11491;41.942;24.220;2023-04-25T03:35:30;29.70;;;22.27;;
22648;SDS011;11491;41.942;24.220;2023-04-25T03:37:56;47.42;;;34.20;;
22648;SDS011;11491;41.942;24.220;2023-04-25T03:40:24;47.92;;;31.23;;
22648;SDS011;11491;41.942;24.220;2023-04-25T03:42:51;45.20;;;33.80;;
22648;SDS011;11491;41.942;24.220;2023-04-25T03:45:18;36.10;;;25.48;;
22648;SDS011;11491;41.942;24.220;2023-04-25T03:47:45;41.40;;;28.15;;
22648;SDS011;11491;41.942;24.220;2023-04-25T03:50:12;39.97;;;25.80;;
22648;SDS011;11491;41.942;24.220;2023-04-25T03:52:38;36.45;;;27.05;;
22648;SDS011;11491;41.942;24.220;2023-04-25T03:55:05;42.40;;;33.28;;
22648;SDS011;11491;41.942;24.220;2023-04-25T03:57:34;36.08;;;28.38;;
22648;SDS011;11491;41.942;24.220;2023-04-25T04:00:00;43.03;;;31.08;;
22648;SDS011;11491;41.942;24.220;2023-04-25T04:02:29;44.88;;;32.35;;
22648;SDS011;11491;41.942;24.220;2023-04-25T04:04:56;55.40;;;35.20;;
22648;SDS011;11491;41.942;24.220;2023-04-25T04:07:22;99.13;;;59.63;;
22648;SDS011;11491;41.942;24.220;2023-04-25T04:09:49;75.63;;;48.10;;
22648;SDS011;11491;41.942;24.220;2023-04-25T04:12:16;53.70;;;37.83;;
22648;SDS011;11491;41.942;24.220;2023-04-25T04:14:44;47.05;;;31.67;;
22648;SDS011;11491;41.942;24.220;2023-04-25T04:17:10;42.90;;;27.85;;
22648;SDS011;11491;41.942;24.220;2023-04-25T04:19:37;40.25;;;25.08;;
22648;SDS011;11491;41.942;24.220;2023-04-25T04:22:04;26.33;;;18.70;;
22648;SDS011;11491;41.942;24.220;2023-04-25T04:24:31;22.13;;;16.90;;
22648;SDS011;11491;41.942;24.220;2023-04-25T04:26:57;29.60;;;19.88;;
22648;SDS011;11491;41.942;24.220;2023-04-25T04:29:25;24.63;;;19.27;;
22648;SDS011;11491;41.942;24.220;2023-04-25T04:31:53;21.10;;;15.07;;
22648;SDS011;11491;41.942;24.220;2023-04-25T04:34:20;19.42;;;13.32;;
22648;SDS011;11491;41.942;24.220;2023-04-25T04:36:47;9.32;;;6.55;;
22648;SDS011;11491;41.942;24.220;2023-04-25T04:39:14;10.77;;;9.25;;
22648;SDS011;11491;41.942;24.220;2023-04-25T04:41:40;10.20;;;8.68;;
22648;SDS011;11491;41.942;24.220;2023-04-25T04:44:07;13.40;;;10.38;;
22648;SDS011;11491;41.942;24.220;2023-04-25T04:46:35;13.57;;;10.80;;
22648;SDS011;11491;41.942;24.220;2023-04-25T04:49:07;16.73;;;10.00;;
22648;SDS011;11491;41.942;24.220;2023-04-25T04:54:10;14.48;;;10.52;;
22648;SDS011;11491;41.942;24.220;2023-04-25T04:56:36;16.00;;;10.60;;
22648;SDS011;11491;41.942;24.220;2023-04-25T04:59:03;21.50;;;14.50;;
22648;SDS011;11491;41.942;24.220;2023-04-25T05:01:30;20.88;;;14.85;;
22648;SDS011;11491;41.942;24.220;2023-04-25T05:03:57;22.55;;;14.32;;
22648;SDS011;11491;41.942;24.220;2023-04-25T05:06:26;19.55;;;14.15;;
22648;SDS011;11491;41.942;24.220;2023-04-25T05:08:55;13.90;;;10.55;;
22648;SDS011;11491;41.942;24.220;2023-04-25T05:11:22;7.72;;;5.90;;
22648;SDS011;11491;41.942;24.220;2023-04-25T05:13:50;10.00;;;8.77;;
22648;SDS011;11491;41.942;24.220;2023-04-25T05:16:17;10.52;;;7.43;;
22648;SDS011;11491;41.942;24.220;2023-04-25T05:18:44;8.13;;;6.40;;
22648;SDS011;11491;41.942;24.220;2023-04-25T05:21:12;22.30;;;16.45;;
22648;SDS011;11491;41.942;24.220;2023-04-25T05:23:40;12.82;;;11.15;;
22648;SDS011;11491;41.942;24.220;2023-04-25T05:26:06;19.38;;;14.82;;
22648;SDS011;11491;41.942;24.220;2023-04-25T05:28:38;15.70;;;11.70;;
22648;SDS011;11491;41.942;24.220;2023-04-25T05:31:05;8.13;;;6.60;;
22648;SDS011;11491;41.942;24.220;2023-04-25T05:33:32;7.53;;;6.57;;
22648;SDS011;11491;41.942;24.220;2023-04-25T05:35:59;11.23;;;8.68;;
22648;SDS011;11491;41.942;24.220;2023-04-25T05:38:26;18.15;;;16.13;;
22648;SDS011;11491;41.942;24.220;2023-04-25T05:40:54;15.90;;;9.05;;
22648;SDS011;11491;41.942;24.220;2023-04-25T05:43:21;8.48;;;6.95;;
22648;SDS011;11491;41.942;24.220;2023-04-25T05:45:48;5.80;;;4.88;;
22648;SDS011;11491;41.942;24.220;2023-04-25T05:48:15;9.13;;;8.23;;
22648;SDS011;11491;41.942;24.220;2023-04-25T05:50:42;9.18;;;7.43;;
22648;SDS011;11491;41.942;24.220;2023-04-25T05:53:09;6.80;;;5.47;;
22648;SDS011;11491;41.942;24.220;2023-04-25T05:55:35;6.00;;;4.47;;
22648;SDS011;11491;41.942;24.220;2023-04-25T05:58:04;5.72;;;4.60;;
22648;SDS011;11491;41.942;24.220;2023-04-25T06:00:31;9.27;;;7.15;;
22648;SDS011;11491;41.942;24.220;2023-04-25T06:02:58;7.60;;;6.25;;
22648;SDS011;11491;41.942;24.220;2023-04-25T06:05:26;7.15;;;5.13;;
22648;SDS011;11491;41.942;24.220;2023-04-25T06:07:52;10.85;;;8.48;;
22648;SDS011;11491;41.942;24.220;2023-04-25T06:10:19;8.05;;;7.20;;
22648;SDS011;11491;41.942;24.220;2023-04-25T06:12:46;6.53;;;5.05;;
22648;SDS011;11491;41.942;24.220;2023-04-25T06:15:14;6.18;;;5.05;;
22648;SDS011;11491;41.942;24.220;2023-04-25T06:17:41;8.10;;;6.47;;
22648;SDS011;11491;41.942;24.220;2023-04-25T06:20:08;10.15;;;7.22;;
22648;SDS011;11491;41.942;24.220;2023-04-25T06:22:35;6.43;;;4.63;;
22648;SDS011;11491;41.942;24.220;2023-04-25T06:25:02;4.60;;;3.90;;
22648;SDS011;11491;41.942;24.220;2023-04-25T06:27:29;3.50;;;2.95;;
22648;SDS011;11491;41.942;24.220;2023-04-25T06:29:56;5.28;;;4.78;;
22648;SDS011;11491;41.942;24.220;2023-04-25T06:32:24;4.28;;;3.88;;
22648;SDS011;11491;41.942;24.220;2023-04-25T06:34:52;5.22;;;3.28;;
22648;SDS011;11491;41.942;24.220;2023-04-25T06:37:19;3.70;;;3.22;;
22648;SDS011;11491;41.942;24.220;2023-04-25T06:39:46;3.40;;;2.55;;
22648;SDS011;11491;41.942;24.220;2023-04-25T06:42:12;2.60;;;2.40;;
22648;SDS011;11491;41.942;24.220;2023-04-25T06:44:39;3.72;;;2.95;;
22648;SDS011;11491;41.942;24.220;2023-04-25T06:47:06;15.75;;;11.48;;
22648;SDS011;11491;41.942;24.220;2023-04-25T06:49:34;3.70;;;3.00;;
22648;SDS011;11491;41.942;24.220;2023-04-25T06:52:02;2.75;;;2.45;;
22648;SDS011;11491;41.942;24.220;2023-04-25T06:54:28;6.82;;;5.50;;
22648;SDS011;11491;41.942;24.220;2023-04-25T06:56:55;6.57;;;5.18;;
22648;SDS011;11491;41.942;24.220;2023-04-25T06:59:23;5.70;;;4.40;;
22648;SDS011;11491;41.942;24.220;2023-04-25T07:01:49;7.72;;;5.45;;
22648;SDS011;11491;41.942;24.220;2023-04-25T07:04:16;4.80;;;4.10;;
22648;SDS011;11491;41.942;24.220;2023-04-25T07:06:44;11.80;;;7.22;;
22648;SDS011;11491;41.942;24.220;2023-04-25T07:09:12;9.30;;;6.82;;
22648;SDS011;11491;41.942;24.220;2023-04-25T07:11:39;12.38;;;9.07;;
22648;SDS011;11491;41.942;24.220;2023-04-25T07:14:06;10.73;;;8.88;;
22648;SDS011;11491;41.942;24.220;2023-04-25T07:16:32;11.52;;;9.88;;
22648;SDS011;11491;41.942;24.220;2023-04-25T07:18:59;16.00;;;5.82;;
22648;SDS011;11491;41.942;24.220;2023-04-25T07:21:26;10.85;;;9.65;;
22648;SDS011;11491;41.942;24.220;2023-04-25T07:23:54;11.40;;;8.52;;
22648;SDS011;11491;41.942;24.220;2023-04-25T07:26:20;13.70;;;10.05;;
22648;SDS011;11491;41.942;24.220;2023-04-25T07:28:47;25.55;;;14.82;;
22648;SDS011;11491;41.942;24.220;2023-04-25T07:31:16;18.23;;;12.48;;
22648;SDS011;11491;41.942;24.220;2023-04-25T07:33:43;11.10;;;7.07;;
22648;SDS011;11491;41.942;24.220;2023-04-25T07:36:10;6.07;;;4.22;;
22648;SDS011;11491;41.942;24.220;2023-04-25T07:38:37;4.82;;;3.90;;
22648;SDS011;11491;41.942;24.220;2023-04-25T07:41:05;5.15;;;3.67;;
22648;SDS011;11491;41.942;24.220;2023-04-25T07:43:32;22.63;;;14.38;;
22648;SDS011;11491;41.942;24.220;2023-04-25T07:45:59;7.10;;;5.57;;
22648;SDS011;11491;41.942;24.220;2023-04-25T07:48:26;5.32;;;3.92;;
22648;SDS011;11491;41.942;24.220;2023-04-25T07:50:52;4.07;;;3.58;;
22648;SDS011;11491;41.942;24.220;2023-04-25T07:53:19;5.20;;;3.95;;
22648;SDS011;11491;41.942;24.220;2023-04-25T07:55:46;4.60;;;4.05;;
22648;SDS011;11491;41.942;24.220;2023-04-25T07:58:14;4.20;;;3.80;;
22648;SDS011;11491;41.942;24.220;2023-04-25T08:00:46;4.93;;;3.00;;
22648;SDS011;11491;41.942;24.220;2023-04-25T08:03:12;5.72;;;5.03;;
22648;SDS011;11491;41.942;24.220;2023-04-25T08:05:39;59.80;;;53.50;;
22648;SDS011;11491;41.942;24.220;2023-04-25T08:08:06;9.30;;;6.43;;
22648;SDS011;11491;41.942;24.220;2023-04-25T08:10:33;12.55;;;9.00;;
22648;SDS011;11491;41.942;24.220;2023-04-25T08:12:59;20.65;;;18.67;;
22648;SDS011;11491;41.942;24.220;2023-04-25T08:15:27;6.15;;;4.57;;
22648;SDS011;11491;41.942;24.220;2023-04-25T08:17:54;6.15;;;5.55;;
22648;SDS011;11491;41.942;24.220;2023-04-25T08:20:21;7.00;;;5.50;;
22648;SDS011;11491;41.942;24.220;2023-04-25T08:22:48;8.50;;;6.25;;
22648;SDS011;11491;41.942;24.220;2023-04-25T08:25:14;4.65;;;4.10;;
22648;SDS011;11491;41.942;24.220;2023-04-25T08:27:41;4.60;;;3.95;;
22648;SDS011;11491;41.942;24.220;2023-04-25T08:30:09;5.05;;;4.07;;
22648;SDS011;11491;41.942;24.220;2023-04-25T08:32:38;4.53;;;3.58;;
22648;SDS011;11491;41.942;24.220;2023-04-25T08:35:05;5.38;;;4.55;;
22648;SDS011;11491;41.942;24.220;2023-04-25T08:37:32;7.25;;;5.45;;
22648;SDS011;11491;41.942;24.220;2023-04-25T08:39:58;6.70;;;4.32;;
22648;SDS011;11491;41.942;24.220;2023-04-25T08:42:26;5.10;;;4.03;;
22648;SDS011;11491;41.942;24.220;2023-04-25T08:44:53;14.55;;;8.63;;
22648;SDS011;11491;41.942;24.220;2023-04-25T08:47:21;3.38;;;2.85;;
22648;SDS011;11491;41.942;24.220;2023-04-25T08:49:50;3.55;;;2.72;;
22648;SDS011;11491;41.942;24.220;2023-04-25T08:52:21;5.20;;;3.47;;
22648;SDS011;11491;41.942;24.220;2023-04-25T08:54:48;3.40;;;2.65;;
22648;SDS011;11491;41.942;24.220;2023-04-25T08:57:17;3.85;;;3.40;;
22648;SDS011;11491;41.942;24.220;2023-04-25T08:59:45;12.10;;;8.38;;
22648;SDS011;11491;41.942;24.220;2023-04-25T09:02:13;5.32;;;4.32;;
22648;SDS011;11491;41.942;24.220;2023-04-25T09:04:42;7.53;;;4.30;;
22648;SDS011;11491;41.942;24.220;2023-04-25T09:07:11;2.72;;;2.20;;
22648;SDS011;11491;41.942;24.220;2023-04-25T09:09:40;1.90;;;1.50;;
22648;SDS011;11491;41.942;24.220;2023-04-25T09:12:07;2.80;;;1.50;;
22648;SDS011;11491;41.942;24.220;2023-04-25T09:14:34;4.40;;;2.70;;
22648;SDS011;11491;41.942;24.220;2023-04-25T09:17:02;5.07;;;3.97;;
22648;SDS011;11491;41.942;24.220;2023-04-25T09:19:30;2.00;;;1.58;;
22648;SDS011;11491;41.942;24.220;2023-04-25T09:21:58;2.88;;;2.50;;
22648;SDS011;11491;41.942;24.220;2023-04-25T09:24:36;4.50;;;3.28;;
22648;SDS011;11491;41.942;24.220;2023-04-25T09:27:04;4.00;;;2.67;;
22648;SDS011;11491;41.942;24.220;2023-04-25T09:29:32;7.78;;;3.92;;
22648;SDS011;11491;41.942;24.220;2023-04-25T09:32:13;1.98;;;1.77;;
22648;SDS011;11491;41.942;24.220;2023-04-25T09:34:42;5.35;;;3.88;;
22648;SDS011;11491;41.942;24.220;2023-04-25T09:37:10;2.28;;;1.65;;
22648;SDS011;11491;41.942;24.220;2023-04-25T09:39:38;3.25;;;1.55;;
22648;SDS011;11491;41.942;24.220;2023-04-25T09:42:05;1.58;;;1.20;;
22648;SDS011;11491;41.942;24.220;2023-04-25T09:44:32;4.03;;;1.48;;
22648;SDS011;11491;41.942;24.220;2023-04-25T09:46:59;2.47;;;1.63;;
22648;SDS011;11491;41.942;24.220;2023-04-25T09:49:26;5.40;;;3.00;;
22648;SDS011;11491;41.942;24.220;2023-04-25T09:51:54;1.33;;;0.98;;
22648;SDS011;11491;41.942;24.220;2023-04-25T09:54:22;2.88;;;1.70;;
22648;SDS011;11491;41.942;24.220;2023-04-25T09:56:50;1.98;;;1.33;;
22648;SDS011;11491;41.942;24.220;2023-04-25T09:59:18;4.20;;;1.70;;
22648;SDS011;11491;41.942;24.220;2023-04-25T10:01:46;1.88;;;1.65;;
22648;SDS011;11491;41.942;24.220;2023-04-25T10:04:16;5.43;;;3.05;;
22648;SDS011;11491;41.942;24.220;2023-04-25T10:06:47;4.60;;;2.72;;
22648;SDS011;11491;41.942;24.220;2023-04-25T10:09:18;1.80;;;1.27;;
22648;SDS011;11491;41.942;24.220;2023-04-25T10:11:46;5.07;;;2.70;;
22648;SDS011;11491;41.942;24.220;2023-04-25T10:14:15;3.58;;;2.35;;
22648;SDS011;11491;41.942;24.220;2023-04-25T10:16:43;6.82;;;2.72;;
22648;SDS011;11491;41.942;24.220;2023-04-25T10:19:10;4.70;;;3.22;;
22648;SDS011;11491;41.942;24.220;2023-04-25T10:21:37;4.60;;;2.13;;
22648;SDS011;11491;41.942;24.220;2023-04-25T10:24:12;2.00;;;1.40;;
22648;SDS011;11491;41.942;24.220;2023-04-25T10:26:39;1.10;;;1.00;;
22648;SDS011;11491;41.942;24.220;2023-04-25T10:29:06;7.43;;;3.83;;
22648;SDS011;11491;41.942;24.220;2023-04-25T10:31:38;2.00;;;0.80;;
22648;SDS011;11491;41.942;24.220;2023-04-25T10:34:11;6.53;;;2.72;;
22648;SDS011;11491;41.942;24.220;2023-04-25T10:36:38;2.67;;;1.40;;
22648;SDS011;11491;41.942;24.220;2023-04-25T10:39:05;2.00;;;1.00;;
22648;SDS011;11491;41.942;24.220;2023-04-25T10:41:45;4.20;;;1.60;;
22648;SDS011;11491;41.942;24.220;2023-04-25T10:44:12;5.05;;;1.60;;
22648;SDS011;11491;41.942;24.220;2023-04-25T10:46:41;2.38;;;1.48;;
22648;SDS011;11491;41.942;24.220;2023-04-25T10:49:10;2.53;;;1.27;;
22648;SDS011;11491;41.942;24.220;2023-04-25T10:51:59;2.80;;;1.50;;
22648;SDS011;11491;41.942;24.220;2023-04-25T10:54:40;1.48;;;1.15;;
22648;SDS011;11491;41.942;24.220;2023-04-25T10:57:07;4.30;;;2.58;;
22648;SDS011;11491;41.942;24.220;2023-04-25T10:59:34;1.13;;;0.68;;
22648;SDS011;11491;41.942;24.220;2023-04-25T11:02:02;1.48;;;0.90;;
22648;SDS011;11491;41.942;24.220;2023-04-25T11:04:38;2.40;;;1.00;;
22648;SDS011;11491;41.942;24.220;2023-04-25T11:07:09;1.27;;;0.90;;
22648;SDS011;11491;41.942;24.220;2023-04-25T11:09:39;1.50;;;0.60;;
22648;SDS011;11491;41.942;24.220;2023-04-25T11:12:07;0.93;;;0.63;;
22648;SDS011;11491;41.942;24.220;2023-04-25T11:14:36;0.45;;;0.45;;
22648;SDS011;11491;41.942;24.220;2023-04-25T11:17:04;3.30;;;1.65;;
22648;SDS011;11491;41.942;24.220;2023-04-25T11:19:31;1.40;;;0.82;;
22648;SDS011;11491;41.942;24.220;2023-04-25T11:21:59;2.75;;;1.40;;
22648;SDS011;11491;41.942;24.220;2023-04-25T11:24:27;1.60;;;1.20;;
22648;SDS011;11491;41.942;24.220;2023-04-25T11:26:54;1.27;;;1.00;;
22648;SDS011;11491;41.942;24.220;2023-04-25T11:29:21;2.60;;;1.30;;
22648;SDS011;11491;41.942;24.220;2023-04-25T11:31:48;1.63;;;1.05;;
22648;SDS011;11491;41.942;24.220;2023-04-25T11:34:18;0.90;;;0.70;;
22648;SDS011;11491;41.942;24.220;2023-04-25T11:36:45;2.80;;;1.70;;
22648;SDS011;11491;41.942;24.220;2023-04-25T11:39:12;4.20;;;1.75;;
22648;SDS011;11491;41.942;24.220;2023-04-25T11:41:40;2.08;;;1.35;;
22648;SDS011;11491;41.942;24.220;2023-04-25T11:44:07;3.58;;;2.22;;
22648;SDS011;11491;41.942;24.220;2023-04-25T11:46:34;2.83;;;1.88;;
22648;SDS011;11491;41.942;24.220;2023-04-25T11:49:01;4.00;;;2.70;;
22648;SDS011;11491;41.942;24.220;2023-04-25T11:51:30;1.90;;;1.30;;
22648;SDS011;11491;41.942;24.220;2023-04-25T11:54:04;1.83;;;1.50;;
22648;SDS011;11491;41.942;24.220;2023-04-25T11:56:31;4.40;;;1.80;;
22648;SDS011;11491;41.942;24.220;2023-04-25T11:58:59;2.40;;;1.63;;
22648;SDS011;11491;41.942;24.220;2023-04-25T12:01:27;1.50;;;0.68;;
22648;SDS011;11491;41.942;24.220;2023-04-25T12:03:55;2.40;;;0.88;;
22648;SDS011;11491;41.942;24.220;2023-04-25T12:06:25;1.85;;;1.40;;
22648;SDS011;11491;41.942;24.220;2023-04-25T12:09:01;1.73;;;1.23;;
22648;SDS011;11491;41.942;24.220;2023-04-25T12:11:29;5.25;;;3.30;;
22648;SDS011;11491;41.942;24.220;2023-04-25T12:14:01;1.98;;;1.25;;
22648;SDS011;11491;41.942;24.220;2023-04-25T12:16:29;2.90;;;1.88;;
22648;SDS011;11491;41.942;24.220;2023-04-25T12:18:56;3.90;;;2.15;;
22648;SDS011;11491;41.942;24.220;2023-04-25T12:21:27;1.25;;;1.10;;
22648;SDS011;11491;41.942;24.220;2023-04-25T12:23:55;3.38;;;1.75;;
22648;SDS011;11491;41.942;24.220;2023-04-25T12:26:23;3.97;;;2.30;;
22648;SDS011;11491;41.942;24.220;2023-04-25T12:28:50;2.22;;;0.80;;
22648;SDS011;11491;41.942;24.220;2023-04-25T12:31:17;7.85;;;5.88;;
22648;SDS011;11491;41.942;24.220;2023-04-25T12:33:44;2.53;;;2.33;;
22648;SDS011;11491;41.942;24.220;2023-04-25T12:36:12;3.97;;;2.50;;
22648;SDS011;11491;41.942;24.220;2023-04-25T12:38:40;2.58;;;1.95;;
22648;SDS011;11491;41.942;24.220;2023-04-25T12:41:08;8.98;;;3.53;;
22648;SDS011;11491;41.942;24.220;2023-04-25T12:43:36;3.90;;;2.42;;
22648;SDS011;11491;41.942;24.220;2023-04-25T12:46:03;14.68;;;9.30;;
22648;SDS011;11491;41.942;24.220;2023-04-25T12:48:30;7.00;;;5.20;;
22648;SDS011;11491;41.942;24.220;2023-04-25T12:50:56;3.45;;;2.58;;
22648;SDS011;11491;41.942;24.220;2023-04-25T12:53:23;3.70;;;3.35;;
22648;SDS011;11491;41.942;24.220;2023-04-25T12:55:50;1.67;;;1.23;;
22648;SDS011;11491;41.942;24.220;2023-04-25T12:58:17;1.13;;;0.98;;
22648;SDS011;11491;41.942;24.220;2023-04-25T13:00:46;4.13;;;2.10;;
22648;SDS011;11491;41.942;24.220;2023-04-25T13:03:13;1.52;;;1.00;;
22648;SDS011;11491;41.942;24.220;2023-04-25T13:05:40;1.75;;;1.00;;
22648;SDS011;11491;41.942;24.220;2023-04-25T13:08:07;4.00;;;3.00;;
22648;SDS011;11491;41.942;24.220;2023-04-25T13:10:34;3.33;;;2.80;;
22648;SDS011;11491;41.942;24.220;2023-04-25T13:13:03;4.43;;;2.60;;
22648;SDS011;11491;41.942;24.220;2023-04-25T13:15:30;7.25;;;6.38;;
22648;SDS011;11491;41.942;24.220;2023-04-25T13:17:58;6.30;;;5.80;;
22648;SDS011;11491;41.942;24.220;2023-04-25T13:20:25;3.03;;;2.72;;
22648;SDS011;11491;41.942;24.220;2023-04-25T13:22:52;5.00;;;4.03;;
22648;SDS011;11491;41.942;24.220;2023-04-25T13:25:18;2.90;;;2.58;;
22648;SDS011;11491;41.942;24.220;2023-04-25T13:27:46;9.68;;;5.93;;
22648;SDS011;11491;41.942;24.220;2023-04-25T13:30:14;8.48;;;5.90;;
22648;SDS011;11491;41.942;24.220;2023-04-25T13:32:40;5.25;;;4.75;;
22648;SDS011;11491;41.942;24.220;2023-04-25T13:35:09;3.95;;;2.60;;
22648;SDS011;11491;41.942;24.220;2023-04-25T13:37:38;3.53;;;2.80;;
22648;SDS011;11491;41.942;24.220;2023-04-25T13:40:06;3.63;;;2.15;;
22648;SDS011;11491;41.942;24.220;2023-04-25T13:42:35;2.13;;;1.90;;
22648;SDS011;11491;41.942;24.220;2023-04-25T13:45:05;8.80;;;5.25;;
22648;SDS011;11491;41.942;24.220;2023-04-25T13:47:34;23.50;;;7.30;;
22648;SDS011;11491;41.942;24.220;2023-04-25T13:50:00;4.55;;;3.72;;
22648;SDS011;11491;41.942;24.220;2023-04-25T13:52:29;12.35;;;9.88;;
22648;SDS011;11491;41.942;24.220;2023-04-25T13:54:56;6.80;;;3.40;;
22648;SDS011;11491;41.942;24.220;2023-04-25T13:57:23;7.72;;;6.45;;
22648;SDS011;11491;41.942;24.220;2023-04-25T13:59:50;7.63;;;5.95;;
22648;SDS011;11491;41.942;24.220;2023-04-25T14:02:17;5.43;;;4.68;;
22648;SDS011;11491;41.942;24.220;2023-04-25T14:04:44;9.23;;;8.32;;
22648;SDS011;11491;41.942;24.220;2023-04-25T14:07:11;10.45;;;9.35;;
22648;SDS011;11491;41.942;24.220;2023-04-25T14:09:39;12.50;;;7.55;;
22648;SDS011;11491;41.942;24.220;2023-04-25T14:12:06;10.13;;;9.23;;
22648;SDS011;11491;41.942;24.220;2023-04-25T14:14:34;14.35;;;10.95;;
22648;SDS011;11491;41.942;24.220;2023-04-25T14:17:01;13.27;;;10.25;;
22648;SDS011;11491;41.942;24.220;2023-04-25T14:19:27;10.80;;;9.13;;
22648;SDS011;11491;41.942;24.220;2023-04-25T14:21:54;21.45;;;15.27;;
22648;SDS011;11491;41.942;24.220;2023-04-25T14:24:21;14.98;;;10.77;;
22648;SDS011;11491;41.942;24.220;2023-04-25T14:26:49;13.93;;;12.00;;
22648;SDS011;11491;41.942;24.220;2023-04-25T14:29:16;12.07;;;8.95;;
22648;SDS011;11491;41.942;24.220;2023-04-25T14:31:43;13.02;;;7.80;;
22648;SDS011;11491;41.942;24.220;2023-04-25T14:34:10;14.70;;;11.00;;